Monday, October 22, 2018, 12:25 AM EDT
Back to Local

KBML, Berlin Municipal Airport

Location: Milan, NH, United States Lat: 44.583
Local Time: 12:25 AM EDT ( 4:25 GMT) Lon: -71.183
Time Zone: US/Eastern Elev: 1158 ft

Show me the last for .
Show Decoded

2018-10-21 23:52 METAR KBML 220352Z AUTO VRB05KT 10SM OVC047 01/M06 A2996 RMK AO2 SNE15 SLP159
                 P0000 T00061056 =
2018-10-21 22:52 METAR KBML 220252Z AUTO VRB06KT 10SM -SN FEW046 OVC060 01/M06 A2996 RMK AO2
                 SNB49 SLP158 P0000 60000 T00061056 53017 =
2018-10-21 21:52 METAR KBML 220152Z AUTO VRB04KT 10SM OVC060 01/M07 A2994 RMK AO2 SLP152
                 T00061067 =
2018-10-21 20:52 METAR KBML 220052Z AUTO VRB05KT 10SM BKN046 OVC060 01/M07 A2992 RMK AO2 SLP146
                 T00111072 =
2018-10-21 19:52 METAR KBML 212352Z AUTO 29007KT 240V320 10SM SCT049 OVC060 01/M06 A2991 RMK AO2
                 SLP140 60000 T00111061 10017 20006 53022 =
2018-10-21 18:52 METAR KBML 212252Z AUTO 29008G15KT 10SM BKN049 OVC060 01/M07 A2989 RMK AO2
                 SLP132 T00111072 =
2018-10-21 17:52 METAR KBML 212152Z AUTO 30008G14KT 10SM OVC050 01/M08 A2986 RMK AO2 SLP122
                 T00111078 =
2018-10-21 16:52 METAR KBML 212052Z AUTO 27004KT 10SM OVC049 02/M07 A2984 RMK AO2 SNE09 SLP119
                 P0000 60000 T00171072 53013 =
2018-10-21 15:52 METAR KBML 211952Z AUTO 27007G14KT 240V310 9SM -SN FEW030 OVC037 01/M06 A2983
                 RMK AO2 SNB46 SLP115 P0000 T00111056 =
2018-10-21 14:52 METAR KBML 211852Z AUTO 31006G16KT 10SM OVC038 02/M06 A2981 RMK AO2 SLP108
                 T00171061 =
2018-10-21 13:52 METAR KBML 211752Z AUTO 31010G16KT 10SM OVC034 01/M06 A2980 RMK AO2 SNE06 SLP106
                 P0000 60000 T00111056 10022 20011 51008 =
2018-10-21 12:52 METAR KBML 211652Z AUTO VRB06G14KT 8SM -SN OVC030 01/M04 A2980 RMK AO2
                 SNE1559B34 SLP104 P0000 T00111044 =
2018-10-21 12:06 METAR KBML 211606Z AUTO 32009G15KT 10SM OVC031 02/M05 A2980 RMK AO2 SNE1559
                 P0000 T00171050 =
2018-10-21 11:52 METAR KBML 211552Z AUTO 33008G18KT 9SM -SN OVC029 01/M04 A2980 RMK AO2 SNB38
                 SLP102 P0000 T00111044 =
2018-10-21 11:39 METAR KBML 211539Z AUTO 33009G14KT 10SM -SN OVC029 02/M04 A2979 RMK AO2 SNB38
                 P0000 T00171039 =
2018-10-21 10:52 METAR KBML 211452Z AUTO 31010G21KT 270V330 10SM OVC034 02/M06 A2978 RMK AO2
                 SLP097 T00221056 51019 =
2018-10-21 09:52 METAR KBML 211352Z AUTO 31011G19KT 10SM OVC031 02/M05 A2976 RMK AO2 SLP089
                 T00221050 =
2018-10-21 09:10 METAR KBML 211310Z AUTO 32009G18KT 10SM OVC031 02/M04 A2974 RMK AO2 T00221044 =
2018-10-21 08:52 METAR KBML 211252Z AUTO 33008G17KT 10SM OVC029 02/M04 A2974 RMK AO2 SLP084
                 T00221044 =
2018-10-21 08:33 METAR KBML 211233Z AUTO 32008KT 10SM OVC029 02/M04 A2974 RMK AO2 T00221039 =
2018-10-21 07:52 METAR KBML 211152Z AUTO 32005KT 10SM OVC031 02/M04 A2972 RMK AO2 SLP075 I6000
                 T00221039 10033 21033 53026 =
2018-10-21 06:52 METAR KBML 211052Z AUTO 33008KT 10SM OVC032 03/M03 A2968 RMK AO2 SLP059
                 T00281033 =
2018-10-21 05:52 METAR KBML 210952Z AUTO 31008KT 10SM OVC037 03/M03 A2965 RMK AO2 SLP047
                 T00331028 =
2018-10-21 04:52 METAR KBML 210852Z AUTO 00000KT 10SM OVC035 M01/M02 A2964 RMK AO2 SLP045 I3000
                 T10111022 53016 =
2018-10-21 03:52 METAR KBML 210752Z AUTO 00000KT 10SM BKN036 M01/M03 A2963 RMK AO2 SLP039
                 T10111028 =
2018-10-21 02:52 METAR KBML 210652Z AUTO 00000KT 10SM SCT055 M02/M03 A2961 RMK AO2 SLP034 I1000
                 T10221028 =
2018-10-21 01:52 METAR KBML 210552Z AUTO 14003KT 10SM FEW055 M01/M02 A2960 RMK AO2 SLP029
                 T10111022 10039 21022 53007 =
2018-10-21 00:52 METAR KBML 210452Z AUTO 00000KT 10SM CLR 00/M02 A2959 RMK AO2 SLP025 T00001017
                 401671011 =

Support USWX by starting your Amazon purchase here.